sensor_id;sensor_type;location;lat;lon;timestamp;temperature;humidity
38938;DHT22;24727;51.974;20.868;2023-11-19T14:39:47;2.10;1.00
38938;DHT22;24727;51.974;20.868;2023-11-19T14:42:13;1.80;1.00
38938;DHT22;24727;51.974;20.868;2023-11-19T14:44:40;1.70;1.00
38938;DHT22;24727;51.974;20.868;2023-11-19T14:47:07;1.70;1.00
38938;DHT22;24727;51.974;20.868;2023-11-19T14:49:35;1.80;1.00
38938;DHT22;24727;51.974;20.868;2023-11-19T14:52:05;1.70;1.00
38938;DHT22;24727;51.974;20.868;2023-11-19T14:54:31;1.60;1.00
38938;DHT22;24727;51.974;20.868;2023-11-19T14:56:57;1.70;1.00
38938;DHT22;24727;51.974;20.868;2023-11-19T14:59:25;1.70;1.00
38938;DHT22;24727;51.974;20.868;2023-11-19T15:01:52;1.90;1.00
38938;DHT22;24727;51.974;20.868;2023-11-19T15:04:23;2.00;1.00
38938;DHT22;24727;51.974;20.868;2023-11-19T15:06:51;1.90;1.00
38938;DHT22;24727;51.974;20.868;2023-11-19T15:09:17;1.90;1.00
38938;DHT22;24727;51.974;20.868;2023-11-19T15:11:55;1.90;1.00
38938;DHT22;24727;51.974;20.868;2023-11-19T15:14:23;1.80;1.00
38938;DHT22;24727;51.974;20.868;2023-11-19T15:16:49;1.80;1.00
38938;DHT22;24727;51.974;20.868;2023-11-19T15:19:18;1.90;1.00
38938;DHT22;24727;51.974;20.868;2023-11-19T15:21:47;1.90;1.00
38938;DHT22;24727;51.974;20.868;2023-11-19T15:24:13;1.90;1.00
38938;DHT22;24727;51.974;20.868;2023-11-19T15:26:39;1.80;1.00
38938;DHT22;24727;51.974;20.868;2023-11-19T15:29:05;1.70;1.00
38938;DHT22;24727;51.974;20.868;2023-11-19T15:31:31;1.70;1.00
38938;DHT22;24727;51.974;20.868;2023-11-19T15:33:57;1.70;1.00
38938;DHT22;24727;51.974;20.868;2023-11-19T15:36:25;1.70;1.00
38938;DHT22;24727;51.974;20.868;2023-11-19T15:40:37;2.00;1.00
38938;DHT22;24727;51.974;20.868;2023-11-19T15:43:04;1.60;1.00
38938;DHT22;24727;51.974;20.868;2023-11-19T15:45:34;1.70;1.00
38938;DHT22;24727;51.974;20.868;2023-11-19T15:48:04;1.80;1.00
38938;DHT22;24727;51.974;20.868;2023-11-19T15:50:30;1.70;1.00
38938;DHT22;24727;51.974;20.868;2023-11-19T15:52:57;1.80;1.00
38938;DHT22;24727;51.974;20.868;2023-11-19T15:55:25;1.80;1.00
38938;DHT22;24727;51.974;20.868;2023-11-19T15:57:51;1.80;1.00
38938;DHT22;24727;51.974;20.868;2023-11-19T16:00:17;1.90;1.00
38938;DHT22;24727;51.974;20.868;2023-11-19T16:02:47;1.90;1.00
38938;DHT22;24727;51.974;20.868;2023-11-19T16:05:13;1.80;1.00
38938;DHT22;24727;51.974;20.868;2023-11-19T16:07:41;1.90;1.00
38938;DHT22;24727;51.974;20.868;2023-11-19T16:10:08;1.90;1.00
38938;DHT22;24727;51.974;20.868;2023-11-19T16:12:35;1.80;1.00
38938;DHT22;24727;51.974;20.868;2023-11-19T16:15:02;1.80;1.00
38938;DHT22;24727;51.974;20.868;2023-11-19T16:17:31;1.80;1.00
38938;DHT22;24727;51.974;20.868;2023-11-19T16:20:00;1.80;1.00
38938;DHT22;24727;51.974;20.868;2023-11-19T16:22:26;1.90;1.00
38938;DHT22;24727;51.974;20.868;2023-11-19T16:24:52;2.10;1.00
38938;DHT22;24727;51.974;20.868;2023-11-19T16:27:20;2.20;1.00
38938;DHT22;24727;51.974;20.868;2023-11-19T16:29:46;2.00;1.00
38938;DHT22;24727;51.974;20.868;2023-11-19T16:32:12;2.00;1.00
38938;DHT22;24727;51.974;20.868;2023-11-19T16:34:38;2.00;1.00
38938;DHT22;24727;51.974;20.868;2023-11-19T16:37:09;2.00;1.00
38938;DHT22;24727;51.974;20.868;2023-11-19T16:39:35;2.00;1.00
38938;DHT22;24727;51.974;20.868;2023-11-19T16:42:02;2.00;1.00
38938;DHT22;24727;51.974;20.868;2023-11-19T16:44:29;2.00;1.00
38938;DHT22;24727;51.974;20.868;2023-11-19T16:46:55;2.00;1.00
38938;DHT22;24727;51.974;20.868;2023-11-19T16:49:21;2.00;1.00
38938;DHT22;24727;51.974;20.868;2023-11-19T16:51:48;2.00;1.00
38938;DHT22;24727;51.974;20.868;2023-11-19T16:54:17;2.10;1.00
38938;DHT22;24727;51.974;20.868;2023-11-19T16:56:45;2.00;1.00
38938;DHT22;24727;51.974;20.868;2023-11-19T16:59:11;2.10;1.00
38938;DHT22;24727;51.974;20.868;2023-11-19T17:01:39;2.00;1.00
38938;DHT22;24727;51.974;20.868;2023-11-19T17:04:05;2.00;1.00
38938;DHT22;24727;51.974;20.868;2023-11-19T17:06:38;2.20;1.00
38938;DHT22;24727;51.974;20.868;2023-11-19T17:09:04;2.20;1.00
38938;DHT22;24727;51.974;20.868;2023-11-19T17:11:31;2.00;1.00
38938;DHT22;24727;51.974;20.868;2023-11-19T17:13:59;2.10;1.00
38938;DHT22;24727;51.974;20.868;2023-11-19T17:16:24;2.20;1.00
38938;DHT22;24727;51.974;20.868;2023-11-19T17:18:50;2.20;1.00
38938;DHT22;24727;51.974;20.868;2023-11-19T17:21:16;2.30;1.00
38938;DHT22;24727;51.974;20.868;2023-11-19T17:23:42;2.10;1.00
38938;DHT22;24727;51.974;20.868;2023-11-19T17:26:10;2.00;1.00
38938;DHT22;24727;51.974;20.868;2023-11-19T17:28:37;2.10;1.00
38938;DHT22;24727;51.974;20.868;2023-11-19T17:31:03;2.20;1.00
38938;DHT22;24727;51.974;20.868;2023-11-19T17:33:34;2.20;1.00
38938;DHT22;24727;51.974;20.868;2023-11-19T17:36:00;2.20;1.00
38938;DHT22;24727;51.974;20.868;2023-11-19T17:38:26;2.30;1.00
38938;DHT22;24727;51.974;20.868;2023-11-19T17:40:53;2.20;1.00
38938;DHT22;24727;51.974;20.868;2023-11-19T17:43:26;2.20;1.00
38938;DHT22;24727;51.974;20.868;2023-11-19T17:45:55;2.20;1.00
38938;DHT22;24727;51.974;20.868;2023-11-19T17:48:27;2.20;1.00
38938;DHT22;24727;51.974;20.868;2023-11-19T17:50:53;2.10;1.00
38938;DHT22;24727;51.974;20.868;2023-11-19T17:53:21;2.20;1.00
38938;DHT22;24727;51.974;20.868;2023-11-19T17:55:50;2.20;1.00
38938;DHT22;24727;51.974;20.868;2023-11-19T17:58:16;2.20;1.00
38938;DHT22;24727;51.974;20.868;2023-11-19T18:00:43;2.20;1.00
38938;DHT22;24727;51.974;20.868;2023-11-19T18:03:10;2.20;1.00
38938;DHT22;24727;51.974;20.868;2023-11-19T18:05:37;2.20;1.00
38938;DHT22;24727;51.974;20.868;2023-11-19T18:08:08;2.30;1.00
38938;DHT22;24727;51.974;20.868;2023-11-19T18:10:36;2.40;1.00
38938;DHT22;24727;51.974;20.868;2023-11-19T18:13:02;2.30;1.00
38938;DHT22;24727;51.974;20.868;2023-11-19T18:15:29;2.30;1.00
38938;DHT22;24727;51.974;20.868;2023-11-19T18:17:55;2.30;1.00
38938;DHT22;24727;51.974;20.868;2023-11-19T18:20:22;2.30;1.00
38938;DHT22;24727;51.974;20.868;2023-11-19T18:22:48;2.30;1.00
38938;DHT22;24727;51.974;20.868;2023-11-19T18:25:14;2.10;1.00
38938;DHT22;24727;51.974;20.868;2023-11-19T18:27:49;2.20;1.00
38938;DHT22;24727;51.974;20.868;2023-11-19T18:30:16;2.30;1.00
38938;DHT22;24727;51.974;20.868;2023-11-19T18:32:43;2.20;1.00
38938;DHT22;24727;51.974;20.868;2023-11-19T18:35:19;2.20;1.00
38938;DHT22;24727;51.974;20.868;2023-11-19T18:37:49;2.10;1.00
38938;DHT22;24727;51.974;20.868;2023-11-19T18:40:18;2.10;1.00
38938;DHT22;24727;51.974;20.868;2023-11-19T18:43:00;2.00;1.00
38938;DHT22;24727;51.974;20.868;2023-11-19T18:45:31;2.10;1.00
38938;DHT22;24727;51.974;20.868;2023-11-19T18:48:01;2.20;1.00
38938;DHT22;24727;51.974;20.868;2023-11-19T18:50:30;2.20;1.00
38938;DHT22;24727;51.974;20.868;2023-11-19T18:52:56;2.50;1.00
38938;DHT22;24727;51.974;20.868;2023-11-19T18:55:25;2.40;1.00
38938;DHT22;24727;51.974;20.868;2023-11-19T18:57:51;2.40;1.00
38938;DHT22;24727;51.974;20.868;2023-11-19T19:00:19;2.30;1.00
38938;DHT22;24727;51.974;20.868;2023-11-19T19:02:46;2.20;1.00
38938;DHT22;24727;51.974;20.868;2023-11-19T19:05:19;2.30;1.00
38938;DHT22;24727;51.974;20.868;2023-11-19T19:07:47;2.50;1.00
38938;DHT22;24727;51.974;20.868;2023-11-19T19:10:15;2.50;1.00
38938;DHT22;24727;51.974;20.868;2023-11-19T19:12:42;2.60;1.00
38938;DHT22;24727;51.974;20.868;2023-11-19T19:15:10;2.60;1.00
38938;DHT22;24727;51.974;20.868;2023-11-19T19:17:40;2.40;1.00
38938;DHT22;24727;51.974;20.868;2023-11-19T19:20:08;2.50;1.00
38938;DHT22;24727;51.974;20.868;2023-11-19T19:22:36;2.50;1.00
38938;DHT22;24727;51.974;20.868;2023-11-19T19:25:06;2.60;1.00
38938;DHT22;24727;51.974;20.868;2023-11-19T19:27:33;2.50;1.00
38938;DHT22;24727;51.974;20.868;2023-11-19T19:30:00;2.50;1.00
38938;DHT22;24727;51.974;20.868;2023-11-19T19:32:28;2.20;1.00
38938;DHT22;24727;51.974;20.868;2023-11-19T19:34:55;2.20;1.00
38938;DHT22;24727;51.974;20.868;2023-11-19T19:37:21;2.30;1.00
38938;DHT22;24727;51.974;20.868;2023-11-19T19:39:48;2.30;1.00
38938;DHT22;24727;51.974;20.868;2023-11-19T19:42:15;2.40;1.00
38938;DHT22;24727;51.974;20.868;2023-11-19T19:44:42;2.40;1.00
38938;DHT22;24727;51.974;20.868;2023-11-19T19:47:07;2.30;1.00
38938;DHT22;24727;51.974;20.868;2023-11-19T19:49:33;2.30;1.00
38938;DHT22;24727;51.974;20.868;2023-11-19T19:52:01;2.20;1.00
38938;DHT22;24727;51.974;20.868;2023-11-19T19:54:28;2.20;1.00
38938;DHT22;24727;51.974;20.868;2023-11-19T19:56:55;2.10;1.00
38938;DHT22;24727;51.974;20.868;2023-11-19T19:59:23;2.10;1.00
38938;DHT22;24727;51.974;20.868;2023-11-19T20:01:49;2.20;1.00
38938;DHT22;24727;51.974;20.868;2023-11-19T20:04:22;2.20;1.00
38938;DHT22;24727;51.974;20.868;2023-11-19T20:06:49;2.30;1.00
38938;DHT22;24727;51.974;20.868;2023-11-19T20:09:16;2.30;1.00
38938;DHT22;24727;51.974;20.868;2023-11-19T20:11:43;2.30;1.00
38938;DHT22;24727;51.974;20.868;2023-11-19T20:14:09;2.40;1.00
38938;DHT22;24727;51.974;20.868;2023-11-19T20:16:37;2.30;1.00
38938;DHT22;24727;51.974;20.868;2023-11-19T20:19:03;2.30;1.00
38938;DHT22;24727;51.974;20.868;2023-11-19T20:21:29;2.30;1.00
38938;DHT22;24727;51.974;20.868;2023-11-19T20:23:56;2.20;1.00
38938;DHT22;24727;51.974;20.868;2023-11-19T20:26:22;2.10;1.00
38938;DHT22;24727;51.974;20.868;2023-11-19T20:28:55;2.10;1.00
38938;DHT22;24727;51.974;20.868;2023-11-19T20:31:22;2.30;1.00
38938;DHT22;24727;51.974;20.868;2023-11-19T20:33:49;2.30;1.00
38938;DHT22;24727;51.974;20.868;2023-11-19T20:36:15;2.30;1.00
38938;DHT22;24727;51.974;20.868;2023-11-19T20:38:41;2.30;1.00
38938;DHT22;24727;51.974;20.868;2023-11-19T20:41:08;2.20;1.00
38938;DHT22;24727;51.974;20.868;2023-11-19T20:43:37;2.10;1.00
38938;DHT22;24727;51.974;20.868;2023-11-19T20:46:03;2.10;1.00
38938;DHT22;24727;51.974;20.868;2023-11-19T20:48:32;2.10;1.00
38938;DHT22;24727;51.974;20.868;2023-11-19T20:50:58;1.90;1.00
38938;DHT22;24727;51.974;20.868;2023-11-19T20:53:25;1.90;1.00
38938;DHT22;24727;51.974;20.868;2023-11-19T20:55:51;1.80;1.00
38938;DHT22;24727;51.974;20.868;2023-11-19T20:58:18;1.90;1.00
38938;DHT22;24727;51.974;20.868;2023-11-19T21:00:44;2.10;1.00
38938;DHT22;24727;51.974;20.868;2023-11-19T21:03:11;2.10;1.00
38938;DHT22;24727;51.974;20.868;2023-11-19T21:05:38;2.20;1.00
38938;DHT22;24727;51.974;20.868;2023-11-19T21:08:06;2.10;1.00
38938;DHT22;24727;51.974;20.868;2023-11-19T21:10:32;2.30;1.00
38938;DHT22;24727;51.974;20.868;2023-11-19T21:12:59;2.40;1.00
38938;DHT22;24727;51.974;20.868;2023-11-19T21:15:27;2.40;1.00
38938;DHT22;24727;51.974;20.868;2023-11-19T21:17:54;2.40;1.00
38938;DHT22;24727;51.974;20.868;2023-11-19T21:20:19;2.30;1.00
38938;DHT22;24727;51.974;20.868;2023-11-19T21:22:46;2.10;1.00
38938;DHT22;24727;51.974;20.868;2023-11-19T21:25:12;2.00;1.00
38938;DHT22;24727;51.974;20.868;2023-11-19T21:27:39;1.90;1.00
38938;DHT22;24727;51.974;20.868;2023-11-19T21:30:05;2.00;1.00
38938;DHT22;24727;51.974;20.868;2023-11-19T21:32:31;2.00;1.00
38938;DHT22;24727;51.974;20.868;2023-11-19T21:34:58;2.10;1.00
38938;DHT22;24727;51.974;20.868;2023-11-19T21:37:25;2.20;1.00
38938;DHT22;24727;51.974;20.868;2023-11-19T21:39:50;2.10;1.00
38938;DHT22;24727;51.974;20.868;2023-11-19T21:42:17;2.10;1.00
38938;DHT22;24727;51.974;20.868;2023-11-19T21:44:43;2.10;1.00
38938;DHT22;24727;51.974;20.868;2023-11-19T21:47:09;2.10;1.00
38938;DHT22;24727;51.974;20.868;2023-11-19T21:49:35;2.20;1.00
38938;DHT22;24727;51.974;20.868;2023-11-19T21:52:04;2.20;1.00
38938;DHT22;24727;51.974;20.868;2023-11-19T21:54:33;2.30;1.00
38938;DHT22;24727;51.974;20.868;2023-11-19T21:57:00;2.30;1.00
38938;DHT22;24727;51.974;20.868;2023-11-19T21:59:27;2.20;1.00
38938;DHT22;24727;51.974;20.868;2023-11-19T22:01:55;2.00;1.00
38938;DHT22;24727;51.974;20.868;2023-11-19T22:04:21;1.90;1.00
38938;DHT22;24727;51.974;20.868;2023-11-19T22:06:47;2.00;1.00
38938;DHT22;24727;51.974;20.868;2023-11-19T22:09:15;2.10;1.00
38938;DHT22;24727;51.974;20.868;2023-11-19T22:11:41;1.90;1.00
38938;DHT22;24727;51.974;20.868;2023-11-19T22:14:07;2.00;1.00
38938;DHT22;24727;51.974;20.868;2023-11-19T22:16:34;2.00;1.00
38938;DHT22;24727;51.974;20.868;2023-11-19T22:19:00;2.10;1.00
38938;DHT22;24727;51.974;20.868;2023-11-19T22:21:28;2.20;1.00
38938;DHT22;24727;51.974;20.868;2023-11-19T22:23:54;2.20;1.00
38938;DHT22;24727;51.974;20.868;2023-11-19T22:26:20;2.20;1.00
38938;DHT22;24727;51.974;20.868;2023-11-19T22:28:46;2.40;1.00
38938;DHT22;24727;51.974;20.868;2023-11-19T22:31:14;2.30;1.00
38938;DHT22;24727;51.974;20.868;2023-11-19T22:33:40;2.50;1.00
38938;DHT22;24727;51.974;20.868;2023-11-19T22:36:07;2.50;1.00
38938;DHT22;24727;51.974;20.868;2023-11-19T22:38:33;2.50;1.00
38938;DHT22;24727;51.974;20.868;2023-11-19T22:40:59;2.50;1.00
38938;DHT22;24727;51.974;20.868;2023-11-19T22:43:25;2.60;1.00
38938;DHT22;24727;51.974;20.868;2023-11-19T22:45:51;2.40;1.00
38938;DHT22;24727;51.974;20.868;2023-11-19T22:48:17;2.20;1.00
38938;DHT22;24727;51.974;20.868;2023-11-19T22:50:43;1.80;1.00
38938;DHT22;24727;51.974;20.868;2023-11-19T22:53:15;1.80;1.00
38938;DHT22;24727;51.974;20.868;2023-11-19T22:55:42;1.80;1.00
38938;DHT22;24727;51.974;20.868;2023-11-19T22:58:08;2.00;1.00
38938;DHT22;24727;51.974;20.868;2023-11-19T23:00:34;2.20;1.00
38938;DHT22;24727;51.974;20.868;2023-11-19T23:03:04;2.30;1.00
38938;DHT22;24727;51.974;20.868;2023-11-19T23:05:30;2.20;1.00
38938;DHT22;24727;51.974;20.868;2023-11-19T23:08:00;2.20;1.00
38938;DHT22;24727;51.974;20.868;2023-11-19T23:10:26;2.10;1.00
38938;DHT22;24727;51.974;20.868;2023-11-19T23:12:52;2.00;1.00
38938;DHT22;24727;51.974;20.868;2023-11-19T23:15:18;2.00;1.00
38938;DHT22;24727;51.974;20.868;2023-11-19T23:17:44;2.20;1.00
38938;DHT22;24727;51.974;20.868;2023-11-19T23:20:11;2.40;1.00
38938;DHT22;24727;51.974;20.868;2023-11-19T23:22:39;2.50;1.00
38938;DHT22;24727;51.974;20.868;2023-11-19T23:25:06;2.30;1.00
38938;DHT22;24727;51.974;20.868;2023-11-19T23:27:34;2.30;1.00
38938;DHT22;24727;51.974;20.868;2023-11-19T23:30:01;2.50;1.00
38938;DHT22;24727;51.974;20.868;2023-11-19T23:32:27;2.60;1.00
38938;DHT22;24727;51.974;20.868;2023-11-19T23:34:53;2.50;1.00
38938;DHT22;24727;51.974;20.868;2023-11-19T23:37:19;2.20;1.00
38938;DHT22;24727;51.974;20.868;2023-11-19T23:39:45;2.40;1.00
38938;DHT22;24727;51.974;20.868;2023-11-19T23:42:11;2.50;1.00
38938;DHT22;24727;51.974;20.868;2023-11-19T23:44:37;2.50;1.00
38938;DHT22;24727;51.974;20.868;2023-11-19T23:47:09;2.60;1.00
38938;DHT22;24727;51.974;20.868;2023-11-19T23:49:36;2.60;1.00
38938;DHT22;24727;51.974;20.868;2023-11-19T23:52:04;2.50;1.00
38938;DHT22;24727;51.974;20.868;2023-11-19T23:54:32;2.30;1.00
38938;DHT22;24727;51.974;20.868;2023-11-19T23:57:00;2.60;1.00
38938;DHT22;24727;51.974;20.868;2023-11-19T23:59:27;2.50;1.00
